Airfield :
LOGIN :

Register | Disclaimer

   EN    FR    IT 

 










Legend :    VFR   Marginal VFR   IFR   Intensive IFR   Very Intensive IFR
Visi :
Ceiling :
>= 8 km
>= 3000ft
5 to 8 km
1000 to 3000 ft
1500m to 5 km
500 to 1000 ft
800 to 1500m
200 to 500 ft
< 800m
< 200 ft
Symbols :   Thunderstorms  Fog  Heavy snow  Heavy precipitations  Wind > 20 kt
SIGMETs :     Misc.  Thunderstorms  Icing  Turbulence  Mountain Waves  Volcanic Ashes






- Airport Elevation : 481 ft
- IATA code : DNK


UKDD - Dnipropetrovs'k

CURRENT METAR :
  • 261100Z 21009MPS 160V250 CAVOK 10/02 Q1002 R26/090070 TEMPO 20010G16MPS

EXPIRED METARs :
  • 261030Z 21009G15MPS 160V240 CAVOK 10/02 Q1002 R26/090070 TEMPO 20010G16MPS
  • 261000Z 20008G13MPS 150V220 CAVOK 10/02 Q1002 R26/090070 TEMPO 20010G16MPS
  • 260930Z 20009MPS 170V230 CAVOK 09/01 Q1003 R26/090070 TEMPO 20010G16MPS
  • 260900Z 20008MPS 150V230 CAVOK 09/01 Q1003 R26/090070 NOSIG
  • 260830Z 19007MPS 150V240 CAVOK 08/00 Q1004 R26/090070 NOSIG

TAF TAF UKDD
Valid from the 26 at 06:00 until the 27 at 06:00 UTC


260505Z 2606/2706 19007G12MPS 9999 BKN020 TX10/2612Z TN02/2703Z
TEMPO 2608/2615 20010G16MPS



MET'MAP, your aeronautical weather chart ! - Copyright ORBIFLY December 2007 - Disclaimer

ORBIFLY MET'MAP TEAM :

Programming & Development : Alexandra Zaïnal
Concept & original design : Baudouin d'Aumeries
Assistance for programming : Marc-Olivier Méhu
Technical & hardware support : Manuel Goepfert

Contact : metmap@orbifly.com




SOURCES & CREDITS :

   NOAA